createdAt,value
2022-10-18T00:00:33.515Z,14.42
2022-10-18T00:03:37.337Z,14.48
2022-10-18T00:06:43.422Z,14.50
2022-10-18T00:09:46.446Z,14.55
2022-10-18T00:12:50.684Z,14.60
2022-10-18T00:15:56.239Z,14.63
2022-10-18T00:18:59.166Z,14.65
2022-10-18T00:22:02.792Z,14.67
2022-10-18T00:25:07.455Z,14.74
2022-10-18T00:28:11.522Z,14.80
2022-10-18T00:31:16.304Z,14.82
2022-10-18T00:34:19.093Z,14.83
2022-10-18T00:37:21.819Z,14.85
2022-10-18T00:40:24.685Z,14.81
2022-10-18T00:43:28.809Z,14.71
2022-10-18T00:46:34.735Z,14.64
2022-10-18T00:49:40.911Z,14.62
2022-10-18T00:52:47.042Z,14.60
2022-10-18T00:55:50.359Z,14.58
2022-10-18T00:58:55.297Z,14.55
2022-10-18T01:01:58.334Z,14.60
2022-10-18T01:05:01.037Z,14.61
2022-10-18T01:08:36.347Z,14.61
2022-10-18T01:12:10.133Z,14.59
2022-10-18T01:15:24.404Z,14.60
2022-10-18T01:18:33.348Z,14.63
2022-10-18T01:21:44.051Z,14.64
2022-10-18T01:25:07.259Z,14.65
2022-10-18T01:28:25.353Z,14.68
2022-10-18T01:31:34.030Z,14.70
2022-10-18T01:34:39.795Z,14.72
2022-10-18T01:37:46.279Z,14.72
2022-10-18T01:40:52.172Z,14.80
2022-10-18T01:43:59.032Z,14.82
2022-10-18T01:47:06.154Z,14.86
2022-10-18T01:50:09.690Z,14.82
2022-10-18T01:53:30.913Z,14.87
2022-10-18T01:56:40.657Z,14.87
2022-10-18T01:59:53.010Z,14.87
2022-10-18T02:03:02.763Z,14.87
2022-10-18T02:06:11.353Z,14.89
2022-10-18T02:09:20.337Z,14.89
2022-10-18T02:12:24.389Z,14.91
2022-10-18T02:15:31.032Z,14.93
2022-10-18T02:18:41.150Z,14.92
2022-10-18T02:21:46.806Z,14.95
2022-10-18T02:24:54.278Z,14.92
2022-10-18T02:27:57.679Z,14.91
2022-10-18T02:31:07.522Z,14.87
2022-10-18T02:34:18.456Z,14.89
2022-10-18T02:37:21.970Z,14.94
2022-10-18T02:40:27.407Z,14.91
2022-10-18T02:43:30.134Z,14.87
2022-10-18T02:46:34.892Z,14.93
2022-10-18T02:49:39.706Z,14.92
2022-10-18T02:52:42.683Z,14.94
2022-10-18T02:55:45.427Z,14.92
2022-10-18T02:58:48.102Z,14.95
2022-10-18T03:01:51.219Z,14.98
2022-10-18T03:04:55.623Z,15.03
2022-10-18T03:07:59.195Z,15.08
2022-10-18T03:11:02.471Z,15.13
2022-10-18T03:14:05.135Z,15.19
2022-10-18T03:17:08.225Z,15.23
2022-10-18T03:20:14.025Z,15.29
2022-10-18T03:23:16.730Z,15.29
2022-10-18T03:26:21.453Z,15.30
2022-10-18T03:29:24.318Z,15.31
2022-10-18T03:32:27.113Z,15.31
2022-10-18T03:35:31.243Z,15.27
2022-10-18T03:38:34.018Z,15.25
2022-10-18T03:41:36.890Z,15.25
2022-10-18T03:44:39.649Z,15.22
2022-10-18T03:47:42.711Z,15.21
2022-10-18T03:50:47.206Z,15.13
2022-10-18T03:53:50.214Z,15.11
2022-10-18T03:56:52.937Z,15.05
2022-10-18T03:59:55.879Z,15.03
2022-10-18T04:02:58.906Z,15.02
2022-10-18T04:06:03.689Z,14.99
2022-10-18T04:09:09.476Z,14.94
2022-10-18T04:12:13.354Z,14.99
2022-10-18T04:15:17.069Z,15.02
2022-10-18T04:18:20.171Z,15.05
2022-10-18T04:21:24.248Z,15.08
2022-10-18T04:24:27.078Z,15.03
2022-10-18T04:27:30.378Z,15.02
2022-10-18T04:30:33.585Z,15.04
2022-10-18T04:33:36.503Z,15.03
2022-10-18T04:36:41.465Z,15.06
2022-10-18T04:39:49.921Z,15.09
2022-10-18T04:42:55.982Z,15.10
2022-10-18T04:45:59.201Z,15.10
2022-10-18T04:49:03.061Z,15.14
2022-10-18T04:52:07.880Z,15.13
2022-10-18T04:55:11.265Z,15.12
2022-10-18T04:58:14.202Z,15.12
2022-10-18T05:01:18.890Z,15.11
2022-10-18T05:04:21.676Z,15.08
2022-10-18T05:07:25.686Z,15.06
2022-10-18T05:10:28.322Z,15.06
2022-10-18T05:13:31.398Z,15.05
2022-10-18T05:16:34.255Z,15.08
2022-10-18T05:19:36.902Z,15.11
2022-10-18T05:22:41.021Z,15.11
2022-10-18T05:25:44.264Z,15.13
2022-10-18T05:28:46.909Z,15.14
2022-10-18T05:31:49.736Z,15.15
2022-10-18T05:34:52.401Z,15.21
2022-10-18T05:37:56.408Z,15.22
2022-10-18T05:40:59.388Z,15.26
2022-10-18T05:44:04.614Z,15.33
2022-10-18T05:47:07.211Z,15.48
2022-10-18T05:50:10.713Z,15.60
2022-10-18T05:53:35.157Z,15.73
2022-10-18T05:59:45.286Z,15.84
2022-10-18T06:02:47.909Z,15.78
2022-10-18T06:05:50.958Z,15.75
2022-10-18T06:08:54.972Z,15.74
2022-10-18T06:11:57.880Z,15.76
2022-10-18T06:15:00.512Z,15.87
2022-10-18T06:18:03.162Z,16.16
2022-10-18T06:21:06.424Z,16.54
2022-10-18T06:24:10.962Z,16.77
2022-10-18T06:27:13.844Z,16.83
2022-10-18T06:30:16.623Z,16.93
2022-10-18T06:33:19.247Z,17.41
2022-10-18T06:36:22.990Z,17.84
2022-10-18T06:39:27.342Z,17.96
2022-10-18T06:42:30.190Z,17.99
2022-10-18T06:45:33.755Z,17.93
2022-10-18T06:48:37.725Z,17.88
2022-10-18T06:51:40.357Z,17.82
2022-10-18T06:54:45.531Z,17.71
2022-10-18T06:57:48.322Z,17.58
2022-10-18T07:00:50.953Z,17.49
2022-10-18T07:03:54.604Z,17.44
2022-10-18T07:06:57.481Z,17.40
2022-10-18T07:10:01.500Z,17.33
2022-10-18T07:13:27.376Z,17.30
2022-10-18T07:16:26.786Z,17.28
2022-10-18T07:19:29.489Z,17.27
2022-10-18T07:22:33.977Z,17.29
2022-10-18T07:25:37.971Z,17.33
2022-10-18T07:28:40.758Z,17.36
2022-10-18T07:31:43.402Z,17.39
2022-10-18T07:34:46.077Z,17.44
2022-10-18T07:37:48.702Z,17.48
2022-10-18T07:40:58.130Z,17.52
2022-10-18T07:44:01.705Z,17.55
2022-10-18T07:47:04.330Z,17.59
2022-10-18T07:50:08.039Z,17.65
2022-10-18T07:53:10.659Z,17.73
2022-10-18T07:56:16.823Z,17.81
2022-10-18T07:59:19.609Z,17.88
2022-10-18T08:02:22.272Z,17.91
2022-10-18T08:05:25.585Z,17.94
2022-10-18T08:08:28.682Z,18.02
2022-10-18T08:11:32.713Z,18.10
2022-10-18T08:14:35.382Z,18.11
2022-10-18T08:17:38.018Z,18.12
2022-10-18T08:20:44.217Z,18.12
2022-10-18T08:23:46.969Z,18.14
2022-10-18T08:26:51.440Z,18.18
2022-10-18T08:29:54.471Z,18.23
2022-10-18T08:32:57.188Z,18.31
2022-10-18T08:36:01.791Z,18.36
2022-10-18T08:39:04.774Z,18.46
2022-10-18T08:42:22.039Z,18.50
2022-10-18T08:45:40.978Z,18.51
2022-10-18T08:48:49.325Z,18.58
2022-10-18T08:51:52.772Z,18.68
2022-10-18T08:55:02.482Z,18.85
2022-10-18T08:58:17.104Z,19.06
2022-10-18T09:01:29.667Z,19.24
2022-10-18T09:04:45.958Z,19.39
2022-10-18T09:08:12.665Z,19.59
2022-10-18T09:11:30.611Z,19.84
2022-10-18T09:15:01.286Z,20.04
2022-10-18T09:18:18.986Z,20.30
2022-10-18T09:21:25.834Z,20.28
2022-10-18T09:24:38.676Z,20.38
2022-10-18T09:27:51.001Z,20.27
2022-10-18T09:31:02.482Z,20.19
2022-10-18T09:34:10.182Z,20.00
2022-10-18T09:37:15.464Z,19.76
2022-10-18T09:40:22.864Z,19.59
2022-10-18T09:43:39.942Z,19.48
2022-10-18T09:46:55.576Z,19.50
2022-10-18T09:50:07.249Z,19.71
2022-10-18T09:53:35.229Z,19.99
2022-10-18T10:00:18.815Z,20.53
2022-10-18T10:03:31.946Z,20.71
2022-10-18T10:06:54.072Z,20.87
2022-10-18T10:10:16.801Z,21.02
2022-10-18T10:13:39.048Z,21.15
2022-10-18T10:16:55.761Z,21.29
2022-10-18T10:20:11.354Z,21.34
2022-10-18T10:23:26.525Z,21.33
2022-10-18T10:26:43.111Z,21.29
2022-10-18T10:30:07.662Z,21.30
2022-10-18T10:33:36.933Z,21.29
2022-10-18T10:40:28.921Z,21.44
2022-10-18T10:43:42.656Z,21.31
2022-10-18T10:47:02.279Z,21.25
2022-10-18T10:50:18.414Z,21.17
2022-10-18T10:53:52.614Z,21.15
2022-10-18T10:57:04.478Z,21.27
2022-10-18T11:00:36.374Z,21.43
2022-10-18T11:03:51.428Z,21.52
2022-10-18T11:07:07.075Z,21.45
2022-10-18T11:10:21.596Z,21.41
2022-10-18T11:13:43.460Z,21.54
2022-10-18T11:17:08.164Z,21.74
2022-10-18T11:20:42.722Z,21.93
2022-10-18T11:24:03.239Z,22.04
2022-10-18T11:27:25.045Z,22.15
2022-10-18T11:30:59.878Z,22.31
2022-10-18T11:34:22.541Z,22.33
2022-10-18T11:37:56.856Z,22.30
2022-10-18T11:41:25.284Z,22.17
2022-10-18T11:45:06.201Z,22.00
2022-10-18T11:56:13.309Z,21.60
2022-10-18T11:59:43.789Z,21.43
2022-10-18T12:03:20.462Z,21.30
2022-10-18T12:06:36.051Z,21.60
2022-10-18T12:13:05.118Z,22.17
2022-10-18T12:16:45.591Z,22.42
2022-10-18T12:20:02.039Z,22.35
2022-10-18T12:23:13.318Z,22.35
2022-10-18T12:26:27.575Z,22.56
2022-10-18T12:29:57.104Z,22.72
2022-10-18T12:33:27.302Z,22.88
2022-10-18T12:40:23.905Z,22.71
2022-10-18T12:43:35.373Z,22.51
2022-10-18T12:47:00.863Z,22.29
2022-10-18T12:50:31.379Z,22.18
2022-10-18T12:53:43.907Z,22.25
2022-10-18T12:56:58.598Z,22.33
2022-10-18T13:00:33.900Z,22.33
2022-10-18T13:04:14.400Z,22.40
2022-10-18T13:07:49.769Z,22.36
2022-10-18T13:11:33.324Z,22.31
2022-10-18T13:15:24.758Z,22.30
2022-10-18T13:18:46.686Z,22.27
2022-10-18T13:22:09.810Z,22.26
2022-10-18T13:25:38.973Z,22.30
2022-10-18T13:29:13.741Z,22.42
2022-10-18T13:32:37.099Z,22.39
2022-10-18T13:36:02.066Z,22.37
2022-10-18T13:39:29.355Z,22.53
2022-10-18T13:42:40.549Z,22.39
2022-10-18T13:54:02.232Z,21.99
2022-10-18T13:57:24.384Z,22.03
2022-10-18T14:00:52.491Z,22.00
2022-10-18T14:04:33.359Z,22.10
2022-10-18T14:07:45.243Z,22.07
2022-10-18T14:11:10.681Z,21.92
2022-10-18T14:14:31.183Z,21.63
2022-10-18T14:17:47.178Z,21.34
2022-10-18T14:21:14.039Z,21.15
2022-10-18T14:24:28.873Z,20.98
2022-10-18T14:27:44.790Z,20.88
2022-10-18T14:31:25.486Z,20.76
2022-10-18T14:34:48.673Z,20.64
2022-10-18T14:38:06.267Z,20.63
2022-10-18T14:41:28.808Z,20.50
2022-10-18T14:44:54.406Z,20.46
2022-10-18T14:48:27.731Z,20.45
2022-10-18T14:51:43.868Z,20.40
2022-10-18T14:55:03.512Z,20.43
2022-10-18T14:58:19.726Z,20.54
2022-10-18T15:01:42.494Z,20.50
2022-10-18T15:05:02.360Z,20.44
2022-10-18T15:08:12.889Z,20.42
2022-10-18T15:11:31.304Z,20.43
2022-10-18T15:14:46.219Z,20.36
2022-10-18T15:17:55.620Z,20.29
2022-10-18T15:21:33.648Z,20.18
2022-10-18T15:24:51.632Z,20.07
2022-10-18T15:28:03.788Z,20.03
2022-10-18T15:31:31.918Z,20.00
2022-10-18T15:34:39.160Z,19.90
2022-10-18T15:37:56.541Z,19.86
2022-10-18T15:41:10.714Z,19.84
2022-10-18T15:44:27.273Z,19.74
2022-10-18T15:47:41.832Z,19.70
2022-10-18T15:50:55.126Z,19.63
2022-10-18T15:54:11.980Z,19.60
2022-10-18T15:57:24.022Z,19.62
2022-10-18T16:00:38.438Z,19.63
2022-10-18T16:04:00.250Z,19.63
2022-10-18T16:07:23.458Z,19.59
2022-10-18T16:10:34.462Z,19.49
2022-10-18T16:14:00.559Z,19.43
2022-10-18T16:17:29.543Z,19.38
2022-10-18T16:24:34.484Z,19.28
2022-10-18T16:27:57.935Z,19.19
2022-10-18T16:31:17.102Z,19.13
2022-10-18T16:34:35.297Z,19.15
2022-10-18T16:37:50.872Z,19.08
2022-10-18T16:41:04.034Z,19.05
2022-10-18T16:44:18.534Z,19.02
2022-10-18T16:47:28.611Z,18.96
2022-10-18T16:50:44.034Z,18.89
2022-10-18T16:57:35.772Z,18.73
2022-10-18T17:00:54.575Z,18.64
2022-10-18T17:04:17.657Z,18.58
2022-10-18T17:07:29.507Z,18.48
2022-10-18T17:10:50.838Z,18.39
2022-10-18T17:14:12.108Z,18.33
2022-10-18T17:17:26.911Z,18.29
2022-10-18T17:20:46.220Z,18.20
2022-10-18T17:23:55.133Z,18.13
2022-10-18T17:30:46.166Z,17.94
2022-10-18T17:34:05.599Z,17.85
2022-10-18T17:37:29.728Z,17.79
2022-10-18T17:48:49.222Z,17.42
2022-10-18T17:52:34.095Z,17.31
2022-10-18T17:56:28.996Z,17.21
2022-10-18T17:59:47.502Z,17.15
2022-10-18T18:02:59.084Z,17.08
2022-10-18T18:06:19.096Z,17.01
2022-10-18T18:09:28.498Z,16.98
2022-10-18T18:12:35.514Z,16.93
2022-10-18T18:15:48.379Z,16.90
2022-10-18T18:18:58.368Z,16.94
2022-10-18T18:22:09.906Z,16.93
2022-10-18T18:25:18.240Z,16.97
2022-10-18T18:28:23.313Z,17.00
2022-10-18T18:31:34.394Z,17.00
2022-10-18T18:34:49.313Z,16.97
2022-10-18T18:37:59.301Z,16.94
2022-10-18T18:41:15.284Z,16.85
2022-10-18T18:44:22.676Z,16.78
2022-10-18T18:47:31.684Z,16.72
2022-10-18T18:50:52.391Z,16.63
2022-10-18T18:53:59.587Z,16.57
2022-10-18T18:57:06.996Z,16.49
2022-10-18T19:00:22.024Z,16.45
2022-10-18T19:03:32.142Z,16.41
2022-10-18T19:06:50.300Z,16.39
2022-10-18T19:10:03.928Z,16.34
2022-10-18T19:13:12.198Z,16.29
2022-10-18T19:16:25.190Z,16.23
2022-10-18T19:19:34.832Z,16.17
2022-10-18T19:22:42.214Z,16.14
2022-10-18T19:25:48.991Z,16.10
2022-10-18T19:28:59.998Z,16.08
2022-10-18T19:32:08.158Z,16.02
2022-10-18T19:35:24.887Z,15.98
2022-10-18T19:38:33.010Z,15.96
2022-10-18T19:41:39.193Z,15.95
2022-10-18T19:44:49.662Z,15.90
2022-10-18T19:47:56.559Z,15.87
2022-10-18T19:51:09.515Z,15.83
2022-10-18T19:54:20.032Z,15.82
2022-10-18T19:57:28.365Z,15.80
2022-10-18T20:00:47.386Z,15.74
2022-10-18T20:03:53.973Z,15.74
2022-10-18T20:07:03.231Z,15.66
2022-10-18T20:10:10.077Z,15.67
2022-10-18T20:13:16.265Z,15.66
2022-10-18T20:16:41.453Z,15.59
2022-10-18T20:32:25.088Z,15.43
2022-10-18T20:35:35.829Z,15.39
2022-10-18T20:38:47.923Z,15.39
2022-10-18T20:41:57.671Z,15.42
2022-10-18T20:45:08.182Z,15.40
2022-10-18T20:48:30.488Z,15.34
2022-10-18T20:51:49.966Z,15.27
2022-10-18T20:54:58.682Z,15.24
2022-10-18T20:58:04.386Z,15.23
2022-10-18T21:01:12.900Z,15.19
2022-10-18T21:04:38.843Z,15.22
2022-10-18T21:08:10.224Z,15.21
2022-10-18T21:11:18.060Z,15.11
2022-10-18T21:14:27.219Z,15.03
2022-10-18T21:17:38.680Z,14.95
2022-10-18T21:20:49.289Z,14.98
2022-10-18T21:24:05.366Z,15.08
2022-10-18T21:27:19.331Z,15.06
2022-10-18T21:30:34.225Z,15.01
2022-10-18T21:33:46.307Z,14.98
2022-10-18T21:36:56.379Z,14.96
2022-10-18T21:40:06.155Z,14.97
2022-10-18T21:43:11.270Z,14.96
2022-10-18T21:46:15.307Z,14.88
2022-10-18T21:49:19.330Z,14.82
2022-10-18T21:52:23.293Z,14.80
2022-10-18T21:55:26.033Z,14.70
2022-10-18T21:58:30.097Z,14.67
2022-10-18T22:01:34.510Z,14.61
2022-10-18T22:04:37.222Z,14.52
2022-10-18T22:07:41.185Z,14.49
2022-10-18T22:10:43.866Z,14.48
2022-10-18T22:14:01.373Z,14.45
2022-10-18T22:17:04.012Z,14.40
2022-10-18T22:20:07.826Z,14.38
2022-10-18T22:23:12.892Z,14.31
2022-10-18T22:26:17.880Z,14.29
2022-10-18T22:29:22.368Z,14.27
2022-10-18T22:32:25.297Z,14.26
2022-10-18T22:35:27.922Z,14.24
2022-10-18T22:38:35.185Z,14.23
2022-10-18T22:41:37.893Z,14.18
2022-10-18T22:44:40.589Z,14.19
2022-10-18T22:47:43.194Z,14.19
2022-10-18T22:50:45.842Z,14.21
2022-10-18T22:53:49.908Z,14.26
2022-10-18T22:56:52.560Z,14.31
2022-10-18T22:59:55.174Z,14.32
2022-10-18T23:02:57.759Z,14.32
2022-10-18T23:06:00.989Z,14.30
2022-10-18T23:09:07.386Z,14.24
2022-10-18T23:12:09.979Z,14.22
2022-10-18T23:15:12.721Z,14.20
2022-10-18T23:18:15.369Z,14.17
2022-10-18T23:21:17.989Z,14.17
2022-10-18T23:24:22.014Z,14.19
2022-10-18T23:27:24.617Z,14.19
2022-10-18T23:30:27.265Z,14.20
2022-10-18T23:33:30.294Z,14.18
2022-10-18T23:36:33.802Z,14.15
2022-10-18T23:39:38.224Z,14.16
2022-10-18T23:42:40.841Z,14.14
2022-10-18T23:45:43.537Z,14.17
2022-10-18T23:48:46.672Z,14.13
2022-10-18T23:51:49.297Z,14.05
2022-10-18T23:54:53.282Z,13.99
2022-10-18T23:57:55.893Z,13.95
